Time;durP1;ratioP1;P1;durP2;ratioP2;P2;SDS_P1;SDS_P2;PMS_P1;PMS_P2;Temp;Humidity;BMP_temperature;BMP_pressure;BME280_temperature;BME280_humidity;BME280_pressure;Samples;Min_cycle;Max_cycle;Signal;HPM_P1;HPM_P2
2023/09/22 00:01:29;;;;;;;4.43;3.67;;;18.90;99.90;;;;;;4991769;28;20503;-53
2023/09/22 00:03:56;;;;;;;6.20;3.80;;;18.90;99.90;;;;;;4990764;28;20507;-53
2023/09/22 00:06:22;;;;;;;9.17;4.30;;;18.80;99.90;;;;;;4987632;28;20452;-53
2023/09/22 00:08:49;;;;;;;14.43;6.10;;;18.80;99.90;;;;;;4991118;28;20821;-52
2023/09/22 00:11:17;;;;;;;17.83;3.77;;;18.80;99.90;;;;;;4990634;28;20974;-53
2023/09/22 00:13:45;;;;;;;10.13;4.27;;;18.80;99.90;;;;;;4991584;28;20452;-51
2023/09/22 00:16:12;;;;;;;8.30;3.53;;;18.80;99.90;;;;;;4991037;28;20986;-53
2023/09/22 00:18:38;;;;;;;14.47;4.67;;;18.70;99.90;;;;;;4989449;28;20468;-53
2023/09/22 00:21:05;;;;;;;5.30;3.80;;;18.70;99.90;;;;;;4990915;28;20485;-53
2023/09/22 00:23:32;;;;;;;7.40;4.17;;;18.70;99.90;;;;;;4982404;28;20465;-52
2023/09/22 00:25:58;;;;;;;6.50;4.40;;;18.80;99.90;;;;;;4981747;28;20456;-53
2023/09/22 00:28:25;;;;;;;10.83;4.10;;;18.80;99.90;;;;;;4983377;28;20468;-53
2023/09/22 00:30:53;;;;;;;8.30;4.27;;;18.80;99.90;;;;;;4992249;28;20476;-53
2023/09/22 00:33:19;;;;;;;6.97;4.20;;;18.80;99.90;;;;;;4989081;28;20531;-52
2023/09/22 00:35:46;;;;;;;12.33;4.30;;;18.80;99.90;;;;;;4983893;28;20539;-52
2023/09/22 00:38:12;;;;;;;7.63;4.27;;;18.90;99.90;;;;;;4990675;28;20469;-52
2023/09/22 00:40:39;;;;;;;7.40;4.20;;;18.80;99.90;;;;;;4989216;28;21254;-52
2023/09/22 00:43:09;;;;;;;8.37;4.27;;;18.90;99.90;;;;;;4991956;28;20456;-51
2023/09/22 00:45:41;;;;;;;9.50;4.87;;;18.90;99.90;;;;;;4991420;28;20449;-53
2023/09/22 00:48:10;;;;;;;8.80;4.70;;;18.90;99.90;;;;;;4988221;28;20472;-53
2023/09/22 00:50:37;;;;;;;6.40;4.67;;;18.90;99.90;;;;;;4991465;28;20468;-51
2023/09/22 00:53:04;;;;;;;11.87;5.17;;;19.00;99.90;;;;;;4992405;28;20461;-51
2023/09/22 00:55:31;;;;;;;8.67;5.40;;;19.10;99.90;;;;;;4981065;28;20544;-53
2023/09/22 00:57:59;;;;;;;16.70;5.43;;;19.10;99.90;;;;;;4988103;28;20467;-52
2023/09/22 01:00:26;;;;;;;9.50;4.60;;;19.20;99.90;;;;;;4994114;28;20543;-52
2023/09/22 01:02:54;;;;;;;16.73;5.10;;;19.20;99.90;;;;;;4989266;28;21025;-52
2023/09/22 01:05:22;;;;;;;9.23;5.00;;;19.20;99.90;;;;;;4988004;28;20518;-53
2023/09/22 01:07:49;;;;;;;11.73;5.70;;;19.30;99.90;;;;;;4989999;28;20468;-53
2023/09/22 01:10:15;;;;;;;6.33;4.80;;;19.30;99.90;;;;;;4983437;28;20485;-55
2023/09/22 01:12:42;;;;;;;11.63;5.50;;;19.30;99.90;;;;;;4989210;28;21375;-52
2023/09/22 01:15:10;;;;;;;9.10;5.20;;;19.20;99.90;;;;;;4991678;28;20484;-52
2023/09/22 01:17:37;;;;;;;12.63;4.93;;;19.20;99.90;;;;;;4988587;28;21037;-53
2023/09/22 01:20:07;;;;;;;7.20;4.70;;;19.20;99.90;;;;;;4987460;28;20915;-52
2023/09/22 01:22:35;;;;;;;9.83;5.30;;;19.20;99.90;;;;;;4989563;28;20460;-53
2023/09/22 01:25:01;;;;;;;6.33;5.10;;;19.20;99.90;;;;;;4986179;28;20506;-53
2023/09/22 01:27:28;;;;;;;9.30;5.80;;;19.20;99.90;;;;;;4990109;28;20587;-54
2023/09/22 01:29:55;;;;;;;12.50;6.27;;;19.20;99.90;;;;;;4988448;28;20484;-53
2023/09/22 01:32:21;;;;;;;10.53;5.60;;;19.10;99.90;;;;;;4990312;28;20558;-51
2023/09/22 01:34:48;;;;;;;9.07;5.33;;;19.10;99.90;;;;;;4995204;28;20973;-52
2023/09/22 01:37:15;;;;;;;9.60;6.03;;;19.10;99.90;;;;;;4988997;28;20919;-54
2023/09/22 01:39:43;;;;;;;9.80;6.00;;;19.10;99.90;;;;;;4991483;28;20489;-53
2023/09/22 01:42:10;;;;;;;9.30;5.90;;;19.00;99.90;;;;;;4989851;28;20614;-52
2023/09/22 01:44:36;;;;;;;8.03;5.97;;;19.00;99.90;;;;;;5019131;23;20546;-55
2023/09/22 01:47:03;;;;;;;7.97;5.77;;;19.00;99.90;;;;;;5008996;28;20467;-55
2023/09/22 01:49:29;;;;;;;6.33;5.73;;;19.00;99.90;;;;;;5011349;28;20953;-55
2023/09/22 01:51:56;;;;;;;10.33;6.10;;;18.90;99.90;;;;;;5017071;28;20941;-55
2023/09/22 01:54:22;;;;;;;10.50;5.80;;;18.90;99.90;;;;;;5007939;28;20826;-54
2023/09/22 01:56:50;;;;;;;7.47;6.70;;;18.90;99.90;;;;;;5003266;28;20465;-54
2023/09/22 01:59:17;;;;;;;16.60;6.33;;;18.80;99.90;;;;;;4994192;28;20493;-54
2023/09/22 02:01:44;;;;;;;14.70;6.20;;;18.80;99.90;;;;;;5004356;28;20512;-55
2023/09/22 02:04:10;;;;;;;6.33;5.27;;;18.80;99.90;;;;;;5005848;28;20488;-54
2023/09/22 02:06:37;;;;;;;17.90;7.40;;;18.80;99.90;;;;;;5007683;28;20965;-54
2023/09/22 02:09:04;;;;;;;10.40;7.13;;;18.80;99.90;;;;;;5006756;28;20603;-55
2023/09/22 02:11:31;;;;;;;6.90;6.13;;;18.90;99.90;;;;;;5011298;28;20475;-55
2023/09/22 02:13:59;;;;;;;9.13;5.60;;;18.80;99.90;;;;;;5010341;28;20981;-55
2023/09/22 02:16:26;;;;;;;8.13;6.50;;;18.80;99.90;;;;;;5011356;28;20486;-55
2023/09/22 02:18:53;;;;;;;8.80;6.63;;;18.80;99.90;;;;;;5012163;28;20463;-54
2023/09/22 02:21:19;;;;;;;15.27;6.00;;;18.80;99.90;;;;;;5013758;28;20825;-55
2023/09/22 02:23:46;;;;;;;11.20;6.00;;;18.80;99.90;;;;;;5013654;28;20472;-54
2023/09/22 02:26:12;;;;;;;8.73;6.00;;;18.80;99.90;;;;;;5011154;28;20459;-55
2023/09/22 02:28:39;;;;;;;10.17;6.10;;;18.80;99.90;;;;;;5012237;28;20463;-54
2023/09/22 02:31:07;;;;;;;18.97;6.77;;;18.80;99.90;;;;;;5013349;28;20471;-54
2023/09/22 02:33:34;;;;;;;9.30;7.13;;;18.80;99.90;;;;;;5011677;28;20483;-54
2023/09/22 02:36:00;;;;;;;8.77;7.10;;;18.80;99.90;;;;;;5010831;28;20898;-55
2023/09/22 02:38:27;;;;;;;8.30;6.37;;;18.80;99.90;;;;;;5013053;28;20471;-55
2023/09/22 02:40:54;;;;;;;6.43;5.83;;;18.70;99.90;;;;;;5013673;28;20454;-54
2023/09/22 02:43:20;;;;;;;8.90;6.63;;;18.70;99.90;;;;;;5009472;28;21013;-55
2023/09/22 02:45:47;;;;;;;7.47;6.30;;;18.70;99.90;;;;;;5012542;28;21256;-54
2023/09/22 02:48:15;;;;;;;12.83;6.47;;;18.70;99.90;;;;;;5013158;28;20521;-54
2023/09/22 02:50:41;;;;;;;5.67;4.83;;;18.80;99.90;;;;;;5010751;28;20468;-53
2023/09/22 02:53:08;;;;;;;12.83;5.37;;;18.80;99.90;;;;;;5013048;28;20519;-50
2023/09/22 02:55:37;;;;;;;4.47;3.90;;;18.80;99.90;;;;;;5011213;28;20495;-50
2023/09/22 02:58:03;;;;;;;9.73;4.27;;;18.80;99.90;;;;;;5009575;28;20459;-50
2023/09/22 03:00:30;;;;;;;4.70;4.30;;;18.80;99.90;;;;;;5010036;28;20491;-50
2023/09/22 03:02:57;;;;;;;4.57;3.63;;;18.80;99.90;;;;;;5013275;28;21043;-50
2023/09/22 03:05:25;;;;;;;6.80;4.10;;;18.80;99.90;;;;;;5008847;28;20917;-51
2023/09/22 03:07:52;;;;;;;7.27;4.47;;;18.80;99.90;;;;;;5010482;28;20464;-50
2023/09/22 03:10:19;;;;;;;8.43;4.17;;;18.80;99.90;;;;;;5012656;28;20471;-50
2023/09/22 03:12:46;;;;;;;7.13;4.77;;;18.70;99.90;;;;;;5009514;28;20518;-49
2023/09/22 03:15:13;;;;;;;5.07;3.50;;;18.80;99.90;;;;;;5013025;28;21081;-49
2023/09/22 03:17:41;;;;;;;6.10;4.40;;;18.70;99.90;;;;;;5010621;28;20871;-49
2023/09/22 03:20:12;;;;;;;5.37;4.60;;;18.70;99.90;;;;;;5008066;28;20468;-50
2023/09/22 03:22:40;;;;;;;7.43;4.70;;;18.70;99.60;;;;;;5012486;28;20460;-50
2023/09/22 03:25:08;;;;;;;6.10;4.30;;;18.60;95.30;;;;;;5008207;28;20460;-50
2023/09/22 03:27:35;;;;;;;4.40;3.33;;;18.60;90.40;;;;;;5010480;28;20464;-50
2023/09/22 03:30:02;;;;;;;2.57;2.20;;;18.50;88.20;;;;;;5009308;28;20548;-50
2023/09/22 03:32:29;;;;;;;3.60;2.10;;;18.40;86.30;;;;;;5012365;28;20884;-49
2023/09/22 03:34:57;;;;;;;3.27;2.20;;;18.40;79.30;;;;;;5011565;28;20471;-50
2023/09/22 03:37:27;;;;;;;1.87;1.73;;;18.30;73.50;;;;;;5011590;28;20554;-50
2023/09/22 03:39:55;;;;;;;2.03;1.80;;;18.20;63.40;;;;;;5012566;28;20633;-50
2023/09/22 03:42:21;;;;;;;1.90;1.80;;;18.00;57.30;;;;;;5010540;28;20522;-51
2023/09/22 03:44:49;;;;;;;2.30;1.60;;;17.90;44.40;;;;;;5012032;28;20494;-50
2023/09/22 03:47:15;;;;;;;2.77;1.80;;;17.80;39.40;;;;;;5008309;28;20522;-51
2023/09/22 03:49:42;;;;;;;2.40;1.60;;;17.70;28.90;;;;;;5009277;28;20467;-50
2023/09/22 03:52:08;;;;;;;3.97;1.60;;;17.60;25.20;;;;;;5012137;28;20459;-50
2023/09/22 03:54:36;;;;;;;1.77;1.50;;;17.50;99.90;;;;;;5012053;28;20953;-50
2023/09/22 03:57:06;;;;;;;3.10;1.20;;;17.40;99.90;;;;;;5012178;28;20491;-51
2023/09/22 03:59:33;;;;;;;1.20;1.10;;;17.30;99.90;;;;;;5011106;28;20558;-50
2023/09/22 04:01:59;;;;;;;1.37;1.27;;;17.20;99.90;;;;;;5011230;28;20464;-50
2023/09/22 04:04:28;;;;;;;3.37;1.10;;;17.10;99.90;;;;;;5005565;28;20578;-50
2023/09/22 04:06:55;;;;;;;1.40;1.30;;;17.10;99.90;;;;;;5012039;28;20479;-50
2023/09/22 04:09:21;;;;;;;1.27;0.90;;;17.00;99.90;;;;;;5010688;28;20522;-50
2023/09/22 04:11:48;;;;;;;8.63;2.00;;;17.00;99.90;;;;;;5010032;28;20448;-49
2023/09/22 04:14:16;;;;;;;1.73;1.63;;;17.00;99.90;;;;;;5012801;28;20530;-51
2023/09/22 04:16:42;;;;;;;1.10;1.03;;;17.00;99.90;;;;;;5008619;28;20488;-50
2023/09/22 04:19:10;;;;;;;1.53;1.23;;;16.90;99.90;;;;;;5005679;28;20467;-50
2023/09/22 04:21:42;;;;;;;1.50;1.40;;;16.90;99.90;;;;;;5003477;28;21040;-50
2023/09/22 04:24:09;;;;;;;3.77;1.37;;;16.80;99.90;;;;;;5010184;28;20495;-50
2023/09/22 04:26:42;;;;;;;1.47;1.37;;;16.80;99.90;;;;;;5011561;28;20534;-50
2023/09/22 04:29:09;;;;;;;1.17;1.07;;;16.80;99.90;;;;;;5009525;28;20914;-50
2023/09/22 04:31:37;;;;;;;3.43;1.60;;;16.80;99.90;;;;;;5008968;28;20476;-49
2023/09/22 04:34:04;;;;;;;3.80;1.30;;;16.70;99.90;;;;;;5009031;28;20475;-50
2023/09/22 04:36:31;;;;;;;3.03;1.30;;;16.70;99.90;;;;;;5006714;28;20479;-49
2023/09/22 04:38:57;;;;;;;5.60;1.80;;;16.70;99.90;;;;;;5010802;28;20491;-50
2023/09/22 04:41:24;;;;;;;2.03;1.83;;;16.70;99.90;;;;;;5005544;28;20468;-50
2023/09/22 04:43:54;;;;;;;6.50;1.90;;;16.60;99.90;;;;;;5011636;28;20546;-50
2023/09/22 04:46:20;;;;;;;1.80;1.70;;;16.60;99.90;;;;;;5005438;28;20937;-49
2023/09/22 04:48:49;;;;;;;1.87;1.77;;;16.60;99.90;;;;;;5005950;28;20468;-50
2023/09/22 04:51:15;;;;;;;1.70;1.60;;;16.60;99.90;;;;;;5009219;28;20896;-50
2023/09/22 04:53:42;;;;;;;3.60;1.93;;;16.50;99.90;;;;;;5011742;28;20498;-52
2023/09/22 04:56:09;;;;;;;2.40;1.20;;;16.50;99.90;;;;;;5009836;28;20483;-50
2023/09/22 04:58:37;;;;;;;2.10;1.50;;;16.60;99.90;;;;;;4999652;28;20464;-49
2023/09/22 05:01:04;;;;;;;8.43;2.17;;;16.50;99.90;;;;;;5003781;28;20471;-49
2023/09/22 05:03:31;;;;;;;1.63;1.53;;;16.50;99.90;;;;;;5009322;28;20484;-50
2023/09/22 05:06:06;;;;;;;2.80;1.37;;;16.40;99.90;;;;;;5008722;28;20498;-49
2023/09/22 05:08:33;;;;;;;2.40;1.50;;;16.40;99.90;;;;;;5006253;28;20463;-50
2023/09/22 05:11:03;;;;;;;3.80;1.77;;;16.40;99.90;;;;;;5005845;28;21228;-50
2023/09/22 05:13:30;;;;;;;2.40;1.60;;;16.40;99.90;;;;;;5004600;28;20476;-49
2023/09/22 05:16:05;;;;;;;4.30;1.80;;;16.40;99.90;;;;;;4998988;28;20483;-49
2023/09/22 05:18:32;;;;;;;3.70;1.60;;;16.40;99.90;;;;;;5007622;28;20490;-49
2023/09/22 05:21:00;;;;;;;3.20;1.57;;;16.40;99.90;;;;;;5009672;28;20472;-49
2023/09/22 05:23:28;;;;;;;2.13;1.93;;;16.40;99.90;;;;;;4999967;28;20479;-50
2023/09/22 05:25:55;;;;;;;4.77;1.80;;;16.40;99.90;;;;;;5014489;28;20476;-50
2023/09/22 05:28:21;;;;;;;4.33;2.13;;;16.40;99.90;;;;;;5010354;28;20514;-50
2023/09/22 05:30:48;;;;;;;1.73;1.57;;;16.40;99.90;;;;;;5011815;28;20900;-55
2023/09/22 05:33:15;;;;;;;2.80;1.53;;;16.40;99.90;;;;;;5010513;28;20991;-55
2023/09/22 05:35:41;;;;;;;1.67;1.53;;;16.40;99.90;;;;;;5007866;28;20484;-56
2023/09/22 05:38:11;;;;;;;6.53;2.97;;;16.40;99.90;;;;;;5013076;28;20972;-56
2023/09/22 05:40:39;;;;;;;3.57;2.80;;;16.40;99.90;;;;;;5014813;28;20513;-56
2023/09/22 05:43:06;;;;;;;6.73;2.53;;;16.40;99.90;;;;;;5011228;28;20537;-56
2023/09/22 05:45:33;;;;;;;7.23;2.83;;;16.40;99.90;;;;;;5005270;28;20463;-56
2023/09/22 05:48:00;;;;;;;5.53;2.97;;;16.40;99.90;;;;;;5014379;28;20459;-55
2023/09/22 05:50:27;;;;;;;7.50;3.10;;;16.40;99.90;;;;;;5018308;28;20522;-57
2023/09/22 05:52:54;;;;;;;6.00;3.60;;;16.40;99.90;;;;;;5017066;28;20491;-57
2023/09/22 05:55:21;;;;;;;8.33;2.83;;;16.50;99.90;;;;;;5019351;28;22022;-57
2023/09/22 05:57:50;;;;;;;7.77;2.87;;;16.40;99.90;;;;;;5013862;28;20491;-57
2023/09/22 06:00:17;;;;;;;4.93;3.17;;;16.40;99.90;;;;;;5015171;28;20688;-57
2023/09/22 06:02:49;;;;;;;4.93;3.10;;;16.40;99.90;;;;;;5022443;28;20443;-57
2023/09/22 06:05:16;;;;;;;5.57;2.77;;;16.50;99.90;;;;;;5006551;28;20481;-57
2023/09/22 06:07:43;;;;;;;5.63;2.60;;;16.50;99.90;;;;;;5016993;28;20460;-56
2023/09/22 06:10:10;;;;;;;3.50;2.70;;;16.40;99.90;;;;;;5021213;28;20471;-57
2023/09/22 06:12:37;;;;;;;4.70;2.80;;;16.40;99.90;;;;;;5015143;28;20522;-58
2023/09/22 06:15:08;;;;;;;4.87;2.30;;;16.40;99.90;;;;;;5011401;28;20467;-57
2023/09/22 06:17:35;;;;;;;3.47;2.40;;;16.40;99.90;;;;;;5015093;28;20490;-57
2023/09/22 06:20:08;;;;;;;4.47;2.97;;;16.40;99.90;;;;;;5012587;28;21018;-57
2023/09/22 06:22:35;;;;;;;2.50;2.10;;;16.40;99.90;;;;;;5005604;28;20839;-57
2023/09/22 06:25:02;;;;;;;5.13;3.20;;;16.40;1.40;;;;;;5007159;28;20475;-57
2023/09/22 06:27:29;;;;;;;4.13;2.80;;;16.30;99.90;;;;;;5012014;28;20983;-56
2023/09/22 06:29:55;;;;;;;2.83;2.53;;;16.30;99.90;;;;;;5011573;28;20516;-57
2023/09/22 06:32:23;;;;;;;2.70;2.10;;;16.30;99.90;;;;;;5010626;28;20499;-57
2023/09/22 06:34:52;;;;;;;8.47;2.97;;;16.40;99.90;;;;;;5009326;28;20484;-56
2023/09/22 06:37:19;;;;;;;4.00;2.30;;;16.40;99.90;;;;;;5012340;28;20482;-57
2023/09/22 06:39:46;;;;;;;5.33;2.23;;;16.40;99.90;;;;;;5023661;28;20502;-57
2023/09/22 06:42:12;;;;;;;3.67;2.00;;;16.40;99.90;;;;;;5024112;28;20467;-51
2023/09/22 06:44:39;;;;;;;5.73;2.53;;;16.40;99.90;;;;;;5006154;28;20491;-50
2023/09/22 06:47:06;;;;;;;2.67;2.10;;;16.40;99.90;;;;;;5012177;28;20498;-49
2023/09/22 06:49:35;;;;;;;3.07;1.80;;;16.40;99.90;;;;;;5010431;28;20463;-50
2023/09/22 06:52:02;;;;;;;2.00;1.57;;;16.50;99.90;;;;;;5008124;28;20893;-50
2023/09/22 06:54:29;;;;;;;9.67;2.20;;;16.50;99.90;;;;;;5020641;28;20560;-50
2023/09/22 06:56:56;;;;;;;2.27;2.07;;;16.60;99.90;;;;;;5018728;28;20485;-50
2023/09/22 06:59:23;;;;;;;4.07;2.00;;;16.70;99.90;;;;;;5009889;28;20521;-50
2023/09/22 07:01:49;;;;;;;2.30;1.60;;;16.70;99.90;;;;;;5008316;28;20468;-51
2023/09/22 07:04:17;;;;;;;3.40;2.33;;;16.70;99.90;;;;;;5017436;28;20501;-50
2023/09/22 07:06:44;;;;;;;4.07;2.07;;;16.70;99.90;;;;;;5012297;28;20462;-50
2023/09/22 07:09:11;;;;;;;4.80;1.63;;;16.70;99.90;;;;;;5013535;28;20463;-50
2023/09/22 07:11:40;;;;;;;2.00;1.80;;;16.70;99.90;;;;;;5012821;28;20841;-49
2023/09/22 07:14:08;;;;;;;1.77;1.40;;;16.70;99.90;;;;;;5008081;28;20993;-49
2023/09/22 07:16:35;;;;;;;4.30;1.60;;;16.70;99.90;;;;;;5011269;28;20489;-50
2023/09/22 07:19:01;;;;;;;2.00;1.60;;;16.70;99.90;;;;;;5015055;28;20470;-51
2023/09/22 07:21:28;;;;;;;3.10;1.93;;;16.70;99.90;;;;;;5020849;28;20463;-51
2023/09/22 07:23:56;;;;;;;3.80;1.87;;;16.80;99.90;;;;;;5006435;28;20479;-50
2023/09/22 07:26:23;;;;;;;5.80;1.73;;;16.80;99.90;;;;;;5010769;28;20458;-51
2023/09/22 07:28:50;;;;;;;2.47;1.33;;;16.80;99.90;;;;;;5004357;28;20843;-51
2023/09/22 07:31:19;;;;;;;3.17;1.93;;;16.80;99.90;;;;;;5010453;28;20534;-51
2023/09/22 07:33:46;;;;;;;3.17;1.57;;;16.80;99.90;;;;;;5011583;28;20484;-51
2023/09/22 07:36:15;;;;;;;4.90;1.60;;;16.80;99.90;;;;;;5008307;28;20498;-50
2023/09/22 07:38:41;;;;;;;2.00;1.80;;;16.70;99.90;;;;;;5009874;28;20460;-50
2023/09/22 07:41:09;;;;;;;4.20;2.10;;;16.70;99.90;;;;;;5011989;28;20498;-51
2023/09/22 07:43:36;;;;;;;7.63;1.43;;;16.70;99.90;;;;;;5010973;28;20518;-50
2023/09/22 07:46:04;;;;;;;1.77;1.67;;;16.70;99.90;;;;;;5007399;28;20469;-57
2023/09/22 07:48:31;;;;;;;1.80;1.70;;;16.70;99.90;;;;;;5001810;28;21013;-58
2023/09/22 07:50:57;;;;;;;7.00;2.47;;;16.70;99.90;;;;;;5012755;28;20463;-57
2023/09/22 07:53:25;;;;;;;2.13;1.90;;;16.70;99.90;;;;;;5012556;28;20481;-57
2023/09/22 07:55:55;;;;;;;2.83;1.73;;;16.70;99.90;;;;;;5018001;28;20590;-57
2023/09/22 07:58:23;;;;;;;3.83;2.10;;;16.70;99.90;;;;;;5019779;28;20482;-56
2023/09/22 08:00:50;;;;;;;2.73;1.73;;;16.80;99.90;;;;;;5012897;28;20479;-57
2023/09/22 08:03:18;;;;;;;5.37;2.20;;;16.80;99.90;;;;;;5010569;28;20557;-58
2023/09/22 08:05:45;;;;;;;2.63;1.87;;;16.80;99.90;;;;;;5024000;28;20972;-57
2023/09/22 08:08:13;;;;;;;3.27;2.10;;;16.90;99.90;;;;;;5013493;28;20542;-57
2023/09/22 08:10:40;;;;;;;3.70;1.77;;;16.90;99.90;;;;;;5008973;28;20459;-57
2023/09/22 08:13:08;;;;;;;1.77;1.57;;;16.90;99.90;;;;;;5001308;28;20495;-58
2023/09/22 08:15:37;;;;;;;2.10;1.90;;;16.90;99.90;;;;;;5009200;28;20464;-57
2023/09/22 08:18:05;;;;;;;1.93;1.73;;;17.00;99.90;;;;;;5007774;28;20489;-57
2023/09/22 08:20:32;;;;;;;6.70;1.73;;;17.00;99.90;;;;;;5019762;28;20478;-57
2023/09/22 08:22:59;;;;;;;4.50;1.80;;;17.00;99.90;;;;;;5024525;28;21068;-58
2023/09/22 08:25:26;;;;;;;1.73;1.40;;;17.00;99.90;;;;;;5019737;28;20512;-57
2023/09/22 08:27:54;;;;;;;2.10;1.70;;;17.00;99.90;;;;;;5019321;28;21024;-57
2023/09/22 08:30:21;;;;;;;1.70;1.60;;;17.00;99.90;;;;;;5017964;28;20487;-57
2023/09/22 08:32:49;;;;;;;3.00;1.80;;;17.00;99.90;;;;;;5016828;28;20966;-58
2023/09/22 08:35:17;;;;;;;3.80;1.40;;;17.00;99.90;;;;;;5001590;28;20936;-57
2023/09/22 08:37:44;;;;;;;2.73;1.60;;;17.00;99.90;;;;;;5012248;28;20486;-56
2023/09/22 08:40:14;;;;;;;2.30;1.60;;;17.00;99.90;;;;;;5004067;28;20530;-57
2023/09/22 08:42:43;;;;;;;5.47;1.77;;;17.00;99.90;;;;;;5008679;28;20586;-57
2023/09/22 08:45:10;;;;;;;1.60;1.47;;;17.10;99.90;;;;;;5008946;28;20472;-56
2023/09/22 08:47:39;;;;;;;1.60;1.40;;;17.10;99.90;;;;;;5007413;28;20506;-56
2023/09/22 08:50:12;;;;;;;4.10;1.63;;;17.10;99.90;;;;;;5021816;28;20872;-56
2023/09/22 08:52:40;;;;;;;2.13;1.93;;;17.10;99.90;;;;;;5011357;28;20459;-57
2023/09/22 08:55:09;;;;;;;2.03;1.83;;;17.10;99.90;;;;;;5005032;28;20467;-57
2023/09/22 08:57:35;;;;;;;3.90;1.77;;;17.10;99.90;;;;;;5012713;28;20582;-57
2023/09/22 09:00:10;;;;;;;1.67;1.57;;;17.20;99.90;;;;;;5011142;28;20574;-57
2023/09/22 09:02:37;;;;;;;2.37;1.60;;;17.20;99.90;;;;;;5000898;28;21222;-57
2023/09/22 09:05:20;;;;;;;1.80;1.70;;;17.20;99.90;;;;;;5005608;28;20469;-57
2023/09/22 09:07:48;;;;;;;2.03;1.83;;;17.20;99.90;;;;;;5009963;28;20460;-57
2023/09/22 09:10:26;;;;;;;3.37;1.50;;;17.20;99.90;;;;;;5013858;28;20936;-56
2023/09/22 09:12:52;;;;;;;2.93;1.70;;;17.20;99.90;;;;;;5010338;28;20485;-57
2023/09/22 09:15:21;;;;;;;1.77;1.50;;;17.20;99.90;;;;;;5002385;28;20463;-57
2023/09/22 09:18:03;;;;;;;2.90;2.17;;;17.30;99.90;;;;;;5021670;28;20573;-56
2023/09/22 09:20:33;;;;;;;5.60;2.27;;;17.30;99.90;;;;;;5014712;28;20952;-56
2023/09/22 09:23:01;;;;;;;2.00;1.90;;;17.30;99.90;;;;;;5012582;28;20868;-58
2023/09/22 09:25:30;;;;;;;5.90;2.23;;;17.30;99.90;;;;;;5010504;28;20463;-57
2023/09/22 09:28:03;;;;;;;4.47;1.90;;;17.30;99.90;;;;;;5011578;28;20452;-56
2023/09/22 09:30:31;;;;;;;2.60;1.80;;;17.40;99.90;;;;;;5012185;28;20489;-57
2023/09/22 09:33:16;;;;;;;1.90;1.73;;;17.40;99.90;;;;;;5016574;28;20517;-57
2023/09/22 09:35:44;;;;;;;2.90;2.00;;;17.30;99.90;;;;;;5014426;28;20463;-57
2023/09/22 09:38:12;;;;;;;2.20;1.70;;;17.30;99.90;;;;;;5016111;28;20534;-56
2023/09/22 09:40:39;;;;;;;7.30;1.70;;;17.30;99.90;;;;;;5022743;28;20485;-57
2023/09/22 09:43:10;;;;;;;3.60;1.80;;;17.30;99.90;;;;;;5003390;28;20486;-57
2023/09/22 09:45:41;;;;;;;6.13;1.80;;;17.30;99.90;;;;;;5006970;28;20440;-56
2023/09/22 09:48:14;;;;;;;1.57;1.47;;;17.30;99.90;;;;;;5014032;28;20932;-57
2023/09/22 09:50:43;;;;;;;1.60;1.50;;;17.30;99.90;;;;;;5014457;28;20454;-57
2023/09/22 09:53:21;;;;;;;2.27;1.60;;;17.30;99.90;;;;;;5018057;28;20509;-56
2023/09/22 09:55:50;;;;;;;3.67;2.00;;;17.30;99.90;;;;;;5018169;28;20467;-57
2023/09/22 09:58:19;;;;;;;4.67;1.87;;;17.40;99.90;;;;;;5015160;28;20483;-56
2023/09/22 10:00:46;;;;;;;2.00;1.70;;;17.40;99.90;;;;;;5013307;28;20464;-56
2023/09/22 10:03:14;;;;;;;2.33;1.50;;;17.40;99.90;;;;;;5014945;28;20482;-56
2023/09/22 10:05:41;;;;;;;2.83;1.53;;;17.50;99.90;;;;;;5017887;28;20532;-56
2023/09/22 10:08:11;;;;;;;1.83;1.30;;;17.40;99.90;;;;;;5014142;28;20459;-56
2023/09/22 10:10:40;;;;;;;3.03;1.90;;;17.50;99.90;;;;;;5020287;28;20810;-57
2023/09/22 10:13:07;;;;;;;4.40;1.40;;;17.50;99.90;;;;;;5015010;28;20834;-56
2023/09/22 10:15:59;;;;;;;1.70;1.40;;;17.60;99.90;;;;;;5008859;28;20460;-57
2023/09/22 10:18:47;;;;;;;1.70;1.17;;;17.60;99.90;;;;;;5011257;28;20550;-56
2023/09/22 10:21:33;;;;;;;1.47;1.37;;;17.60;99.90;;;;;;5007144;28;20463;-56
2023/09/22 10:24:20;;;;;;;4.07;1.30;;;17.60;99.90;;;;;;5006686;28;20480;-56
2023/09/22 10:27:18;;;;;;;3.50;1.73;;;17.60;99.90;;;;;;5004735;28;20467;-56
2023/09/22 10:29:51;;;;;;;1.87;1.33;;;17.60;99.90;;;;;;4971067;28;20466;-56
2023/09/22 10:32:27;;;;;;;2.27;1.70;;;17.60;99.90;;;;;;5008761;28;20485;-57
2023/09/22 10:34:56;;;;;;;2.10;1.40;;;17.60;99.90;;;;;;5010415;28;20562;-57
2023/09/22 10:37:24;;;;;;;2.27;1.60;;;17.60;99.90;;;;;;5020291;28;20569;-56
2023/09/22 10:39:52;;;;;;;2.40;1.40;;;17.50;76.30;;;;;;5008266;28;20464;-55
2023/09/22 10:42:21;;;;;;;2.33;1.43;;;17.50;31.70;;;;;;5013094;28;20479;-57
2023/09/22 10:44:58;;;;;;;2.60;1.60;;;17.50;32.90;;;;;;5012565;28;20519;-57
2023/09/22 10:47:28;;;;;;;1.10;1.07;;;17.60;34.20;;;;;;5016628;28;20505;-57
2023/09/22 10:49:55;;;;;;;1.10;1.00;;;17.50;41.90;;;;;;5009149;28;20456;-57
2023/09/22 10:52:21;;;;;;;2.10;1.33;;;17.60;36.30;;;;;;5018060;28;20458;-58
2023/09/22 10:54:48;;;;;;;1.20;1.10;;;17.50;64.30;;;;;;5014111;28;20522;-57
2023/09/22 10:57:27;;;;;;;1.70;1.23;;;17.50;57.20;;;;;;5013723;28;20443;-57
2023/09/22 10:59:55;;;;;;;1.30;1.27;;;17.50;59.00;;;;;;5016206;28;21018;-58
2023/09/22 11:02:23;;;;;;;1.43;1.33;;;17.50;60.90;;;;;;5013973;28;20943;-58
2023/09/22 11:04:50;;;;;;;2.53;1.37;;;17.50;59.20;;;;;;5013910;28;21027;-57
2023/09/22 11:07:31;;;;;;;1.17;1.07;;;17.40;65.20;;;;;;5013317;28;20506;-57
2023/09/22 11:09:57;;;;;;;3.40;1.57;;;17.40;68.40;;;;;;5013944;28;20444;-58
2023/09/22 11:12:26;;;;;;;1.30;1.20;;;17.40;66.30;;;;;;5013008;28;20968;-56
2023/09/22 11:14:54;;;;;;;10.80;1.70;;;17.50;57.30;;;;;;5016159;28;20479;-56
2023/09/22 11:17:20;;;;;;;1.50;1.33;;;17.50;54.20;;;;;;5012801;28;20464;-56
2023/09/22 11:19:51;;;;;;;2.23;1.60;;;17.50;52.00;;;;;;5014450;28;20546;-56
2023/09/22 11:22:18;;;;;;;1.53;1.10;;;17.50;42.50;;;;;;5017998;28;20467;-57
2023/09/22 11:24:45;;;;;;;1.30;1.20;;;17.50;43.80;;;;;;5006636;28;20988;-57
2023/09/22 11:27:12;;;;;;;2.60;1.53;;;17.60;42.00;;;;;;5002232;28;20453;-57
2023/09/22 11:29:41;;;;;;;1.80;1.70;;;17.60;40.20;;;;;;5011402;28;20949;-57
2023/09/22 11:32:08;;;;;;;1.50;1.40;;;17.60;46.10;;;;;;5007022;28;20444;-57
2023/09/22 11:34:45;;;;;;;2.33;1.40;;;17.70;59.10;;;;;;4996625;28;20932;-57
2023/09/22 11:37:12;;;;;;;8.97;1.70;;;17.70;66.10;;;;;;5007416;28;20449;-57
2023/09/22 11:39:38;;;;;;;1.53;1.27;;;17.70;62.00;;;;;;4993470;28;20594;-56
2023/09/22 11:42:05;;;;;;;3.83;1.00;;;17.70;60.80;;;;;;4993513;28;20538;-56
2023/09/22 11:44:32;;;;;;;1.90;1.47;;;17.80;58.60;;;;;;5002842;28;20482;-57
2023/09/22 11:47:00;;;;;;;2.83;1.57;;;17.80;55.20;;;;;;5003898;28;20974;-57
2023/09/22 11:49:35;;;;;;;2.60;1.63;;;17.80;51.70;;;;;;5008061;28;20456;-57
2023/09/22 11:52:03;;;;;;;2.53;1.40;;;17.90;52.30;;;;;;5014765;28;20987;-56
2023/09/22 11:54:32;;;;;;;1.50;1.33;;;17.90;54.80;;;;;;5010340;28;20472;-57
2023/09/22 11:57:00;;;;;;;4.53;1.53;;;18.00;60.50;;;;;;5016892;28;20467;-57
2023/09/22 11:59:27;;;;;;;3.47;1.67;;;18.00;75.50;;;;;;5013824;28;20482;-57
2023/09/22 12:01:55;;;;;;;4.67;1.60;;;18.00;73.90;;;;;;5013493;28;20606;-58
2023/09/22 12:04:23;;;;;;;3.53;1.70;;;18.00;76.70;;;;;;5011839;28;20498;-58
2023/09/22 12:06:57;;;;;;;2.87;1.50;;;18.10;77.40;;;;;;5079653;28;20550;-57
2023/09/22 12:09:24;;;;;;;2.20;1.40;;;18.10;77.80;;;;;;5079977;28;20461;-57
2023/09/22 12:11:50;;;;;;;4.13;1.40;;;18.00;78.00;;;;;;5076808;28;20493;-57
2023/09/22 12:14:17;;;;;;;3.03;1.47;;;18.10;75.20;;;;;;5047995;28;20473;-57
2023/09/22 12:16:44;;;;;;;2.00;1.33;;;18.10;84.30;;;;;;5046880;28;20528;-57
2023/09/22 12:19:10;;;;;;;2.03;1.10;;;18.20;90.50;;;;;;5060273;28;20462;-58
2023/09/22 12:21:37;;;;;;;2.27;1.30;;;18.20;96.20;;;;;;5035113;28;20458;-58
2023/09/22 12:24:06;;;;;;;3.33;1.07;;;18.20;94.20;;;;;;5038266;28;21023;-57
2023/09/22 12:26:32;;;;;;;3.20;1.90;;;18.30;86.80;;;;;;5051527;28;20563;-56
2023/09/22 12:29:03;;;;;;;1.77;1.30;;;18.30;98.70;;;;;;5049711;28;20506;-57
2023/09/22 12:31:29;;;;;;;1.50;1.40;;;18.30;99.90;;;;;;5062347;28;20523;-57
2023/09/22 12:33:56;;;;;;;11.47;1.27;;;18.20;99.90;;;;;;5055748;28;20531;-58
2023/09/22 12:36:23;;;;;;;2.63;1.30;;;18.20;94.40;;;;;;5058209;28;20453;-56
2023/09/22 12:38:50;;;;;;;2.10;1.43;;;18.10;99.80;;;;;;5060380;28;20496;-56
2023/09/22 12:41:18;;;;;;;2.80;1.40;;;18.00;97.40;;;;;;5053480;28;20457;-57
2023/09/22 12:43:44;;;;;;;2.43;1.47;;;18.00;99.20;;;;;;5047063;28;20532;-57
2023/09/22 12:46:13;;;;;;;1.90;1.10;;;17.90;96.70;;;;;;5053027;28;20542;-56
2023/09/22 12:48:40;;;;;;;1.57;0.97;;;17.90;91.00;;;;;;5067876;28;20492;-50
2023/09/22 12:51:07;;;;;;;2.10;1.20;;;17.90;85.30;;;;;;5051026;28;20461;-50